Bassenge, Belgium
Current Conditions -  °F | °C
As of 2:20 PM on Monday 22 Dec 2014 (Local Time) from EBLG Reporting Station
Broken Clouds Broken Clouds  
Wind Chill: 40°   Ceiling: 900
Heat Index: 48°   Visibility: 6mi
Dew Point: 45°   Wind: 25mph
Humidity: 87%   Direction: 230°SW
Pressure: 30.12"   Gusts: NA
Location:  50.76°N, 5.61°E
Report Text: EBLG 221320Z 23022KT 9999 BKN009 09/07 Q1020 TEMPO 22020G30KT 4000 BKN006
Loading
Personal Weather Stations






























Interactive Weather Map New forecast layout! Learn more

10-Day Weather Forecast

Advertisements
Track Severe Weather on mobile